METAR Data
IDs: Format: Raw Decoded Include TAF

Data at: 2350 UTC 24 Apr 2019

METAR for:KMPZ (Mount Pleasant Muni, IA, US)
Text:KMPZ 242335Z AUTO 13005KT 10SM BKN035 17/09 A2985 RMK AO2
Temperature: 17.0°C ( 63°F)
Dewpoint: 9.0°C ( 48°F) [RH = 59%]
Pressure (altimeter):29.85 inches Hg (1010.9 mb)
Winds:from the SE (130 degrees) at 6 MPH (5 knots; 2.6 m/s)
Visibility:10 or more sm (16+ km)
Ceiling:3500 feet AGL
Clouds: broken clouds at 3500 feet AGL
QC Flag:automated observation with no human augmentation